sensor_id;sensor_type;location;lat;lon;timestamp;P1;durP1;ratioP1;P2;durP2;ratioP2
64854;SDS011;51321;50.428;8.378;2022-07-10T00:01:30;9.40;;;4.75;;
64854;SDS011;51321;50.428;8.378;2022-07-10T00:03:52;7.65;;;4.45;;
64854;SDS011;51321;50.428;8.378;2022-07-10T00:06:16;7.30;;;3.58;;
64854;SDS011;51321;50.428;8.378;2022-07-10T00:08:38;6.75;;;3.92;;
64854;SDS011;51321;50.428;8.378;2022-07-10T00:11:00;8.10;;;3.47;;
64854;SDS011;51321;50.428;8.378;2022-07-10T00:13:21;6.95;;;2.90;;
64854;SDS011;51321;50.428;8.378;2022-07-10T00:15:43;7.32;;;2.80;;
64854;SDS011;51321;50.428;8.378;2022-07-10T00:18:05;7.18;;;2.80;;
64854;SDS011;51321;50.428;8.378;2022-07-10T00:20:27;6.45;;;3.28;;
64854;SDS011;51321;50.428;8.378;2022-07-10T00:22:50;4.47;;;2.35;;
64854;SDS011;51321;50.428;8.378;2022-07-10T00:25:12;4.97;;;2.35;;
64854;SDS011;51321;50.428;8.378;2022-07-10T00:27:35;3.78;;;1.95;;
64854;SDS011;51321;50.428;8.378;2022-07-10T00:29:57;4.30;;;1.95;;
64854;SDS011;51321;50.428;8.378;2022-07-10T00:32:19;3.63;;;1.88;;
64854;SDS011;51321;50.428;8.378;2022-07-10T00:34:41;3.25;;;1.73;;
64854;SDS011;51321;50.428;8.378;2022-07-10T00:37:04;3.08;;;1.90;;
64854;SDS011;51321;50.428;8.378;2022-07-10T00:39:27;4.43;;;1.63;;
64854;SDS011;51321;50.428;8.378;2022-07-10T00:41:49;7.70;;;2.70;;
64854;SDS011;51321;50.428;8.378;2022-07-10T00:44:11;5.28;;;2.97;;
64854;SDS011;51321;50.428;8.378;2022-07-10T00:46:33;4.82;;;2.50;;
64854;SDS011;51321;50.428;8.378;2022-07-10T00:48:55;5.60;;;2.97;;
64854;SDS011;51321;50.428;8.378;2022-07-10T00:51:19;6.15;;;2.25;;
64854;SDS011;51321;50.428;8.378;2022-07-10T00:53:42;5.75;;;2.97;;
64854;SDS011;51321;50.428;8.378;2022-07-10T00:56:07;7.68;;;2.90;;
64854;SDS011;51321;50.428;8.378;2022-07-10T00:58:32;4.40;;;2.42;;
64854;SDS011;51321;50.428;8.378;2022-07-10T01:00:54;5.32;;;2.42;;
64854;SDS011;51321;50.428;8.378;2022-07-10T01:03:15;6.07;;;3.33;;
64854;SDS011;51321;50.428;8.378;2022-07-10T01:05:37;8.23;;;3.90;;
64854;SDS011;51321;50.428;8.378;2022-07-10T01:08:03;14.60;;;4.93;;
64854;SDS011;51321;50.428;8.378;2022-07-10T01:10:25;30.77;;;11.18;;
64854;SDS011;51321;50.428;8.378;2022-07-10T01:12:48;18.98;;;8.35;;
64854;SDS011;51321;50.428;8.378;2022-07-10T01:15:10;15.80;;;6.78;;
64854;SDS011;51321;50.428;8.378;2022-07-10T01:17:32;59.80;;;19.13;;
64854;SDS011;51321;50.428;8.378;2022-07-10T01:19:53;64.93;;;23.08;;
64854;SDS011;51321;50.428;8.378;2022-07-10T01:22:17;67.93;;;27.20;;
64854;SDS011;51321;50.428;8.378;2022-07-10T01:24:38;66.78;;;27.42;;
64854;SDS011;51321;50.428;8.378;2022-07-10T01:27:00;63.45;;;24.95;;
64854;SDS011;51321;50.428;8.378;2022-07-10T01:29:23;62.33;;;24.08;;
64854;SDS011;51321;50.428;8.378;2022-07-10T01:31:44;52.03;;;21.02;;
64854;SDS011;51321;50.428;8.378;2022-07-10T01:34:07;46.10;;;19.48;;
64854;SDS011;51321;50.428;8.378;2022-07-10T01:36:30;46.00;;;17.65;;
64854;SDS011;51321;50.428;8.378;2022-07-10T01:38:54;35.35;;;14.45;;
64854;SDS011;51321;50.428;8.378;2022-07-10T01:41:17;36.38;;;12.77;;
64854;SDS011;51321;50.428;8.378;2022-07-10T01:43:39;34.47;;;12.20;;
64854;SDS011;51321;50.428;8.378;2022-07-10T01:46:02;22.85;;;7.65;;
64854;SDS011;51321;50.428;8.378;2022-07-10T01:48:25;14.60;;;6.40;;
64854;SDS011;51321;50.428;8.378;2022-07-10T01:50:47;11.93;;;3.60;;
64854;SDS011;51321;50.428;8.378;2022-07-10T01:53:10;6.32;;;2.30;;
64854;SDS011;51321;50.428;8.378;2022-07-10T01:55:34;7.22;;;2.00;;
64854;SDS011;51321;50.428;8.378;2022-07-10T01:57:55;5.72;;;1.88;;
64854;SDS011;51321;50.428;8.378;2022-07-10T02:00:21;7.75;;;1.83;;
64854;SDS011;51321;50.428;8.378;2022-07-10T02:02:44;3.97;;;1.85;;
64854;SDS011;51321;50.428;8.378;2022-07-10T02:05:26;3.58;;;1.23;;
64854;SDS011;51321;50.428;8.378;2022-07-10T02:07:47;3.33;;;1.20;;
64854;SDS011;51321;50.428;8.378;2022-07-10T02:10:08;3.53;;;1.40;;
64854;SDS011;51321;50.428;8.378;2022-07-10T02:12:31;5.53;;;1.27;;
64854;SDS011;51321;50.428;8.378;2022-07-10T02:14:53;1.83;;;0.80;;
64854;SDS011;51321;50.428;8.378;2022-07-10T02:17:19;4.70;;;1.27;;
64854;SDS011;51321;50.428;8.378;2022-07-10T02:19:41;2.92;;;0.90;;
64854;SDS011;51321;50.428;8.378;2022-07-10T02:22:03;4.13;;;0.90;;
64854;SDS011;51321;50.428;8.378;2022-07-10T02:24:25;4.20;;;1.15;;
64854;SDS011;51321;50.428;8.378;2022-07-10T02:26:47;4.13;;;1.13;;
64854;SDS011;51321;50.428;8.378;2022-07-10T02:29:10;4.78;;;1.50;;
64854;SDS011;51321;50.428;8.378;2022-07-10T02:31:32;7.30;;;1.35;;
64854;SDS011;51321;50.428;8.378;2022-07-10T02:33:56;5.28;;;1.25;;
64854;SDS011;51321;50.428;8.378;2022-07-10T02:36:18;5.18;;;0.93;;
64854;SDS011;51321;50.428;8.378;2022-07-10T02:38:40;4.18;;;1.20;;
64854;SDS011;51321;50.428;8.378;2022-07-10T02:41:02;8.15;;;2.95;;
64854;SDS011;51321;50.428;8.378;2022-07-10T02:43:24;3.17;;;1.20;;
64854;SDS011;51321;50.428;8.378;2022-07-10T02:45:47;5.82;;;0.98;;
64854;SDS011;51321;50.428;8.378;2022-07-10T02:48:09;6.30;;;0.90;;
64854;SDS011;51321;50.428;8.378;2022-07-10T02:50:31;4.20;;;1.30;;
64854;SDS011;51321;50.428;8.378;2022-07-10T02:52:53;4.88;;;0.98;;
64854;SDS011;51321;50.428;8.378;2022-07-10T02:55:14;4.03;;;1.00;;
64854;SDS011;51321;50.428;8.378;2022-07-10T02:57:36;13.00;;;4.22;;
64854;SDS011;51321;50.428;8.378;2022-07-10T02:59:58;29.75;;;9.52;;
64854;SDS011;51321;50.428;8.378;2022-07-10T03:02:21;27.98;;;9.95;;
64854;SDS011;51321;50.428;8.378;2022-07-10T03:04:43;22.52;;;7.53;;
64854;SDS011;51321;50.428;8.378;2022-07-10T03:07:05;5.07;;;1.23;;
64854;SDS011;51321;50.428;8.378;2022-07-10T03:09:26;5.35;;;1.63;;
64854;SDS011;51321;50.428;8.378;2022-07-10T03:11:48;3.67;;;1.40;;
64854;SDS011;51321;50.428;8.378;2022-07-10T03:14:10;28.65;;;9.43;;
64854;SDS011;51321;50.428;8.378;2022-07-10T03:16:32;9.07;;;3.75;;
64854;SDS011;51321;50.428;8.378;2022-07-10T03:18:56;17.60;;;6.18;;
64854;SDS011;51321;50.428;8.378;2022-07-10T03:21:19;25.38;;;9.02;;
64854;SDS011;51321;50.428;8.378;2022-07-10T03:23:41;9.80;;;2.60;;
64854;SDS011;51321;50.428;8.378;2022-07-10T03:26:03;11.52;;;3.35;;
64854;SDS011;51321;50.428;8.378;2022-07-10T03:28:24;8.93;;;1.40;;
64854;SDS011;51321;50.428;8.378;2022-07-10T03:30:46;5.43;;;2.17;;
64854;SDS011;51321;50.428;8.378;2022-07-10T03:33:08;8.75;;;1.88;;
64854;SDS011;51321;50.428;8.378;2022-07-10T03:35:31;6.13;;;2.10;;
64854;SDS011;51321;50.428;8.378;2022-07-10T03:37:53;7.72;;;1.90;;
64854;SDS011;51321;50.428;8.378;2022-07-10T03:40:15;10.23;;;2.72;;
64854;SDS011;51321;50.428;8.378;2022-07-10T03:42:37;14.70;;;3.45;;
64854;SDS011;51321;50.428;8.378;2022-07-10T03:44:58;7.25;;;2.00;;
64854;SDS011;51321;50.428;8.378;2022-07-10T03:47:20;14.27;;;4.82;;
64854;SDS011;51321;50.428;8.378;2022-07-10T03:49:42;16.35;;;3.88;;
64854;SDS011;51321;50.428;8.378;2022-07-10T03:52:05;25.13;;;7.90;;
64854;SDS011;51321;50.428;8.378;2022-07-10T03:54:28;23.45;;;8.00;;
64854;SDS011;51321;50.428;8.378;2022-07-10T03:56:50;15.98;;;5.00;;
64854;SDS011;51321;50.428;8.378;2022-07-10T03:59:29;30.52;;;11.48;;
64854;SDS011;51321;50.428;8.378;2022-07-10T04:01:51;51.88;;;19.45;;
64854;SDS011;51321;50.428;8.378;2022-07-10T04:04:13;26.58;;;9.05;;
64854;SDS011;51321;50.428;8.378;2022-07-10T04:06:35;28.95;;;9.32;;
64854;SDS011;51321;50.428;8.378;2022-07-10T04:09:00;28.25;;;10.00;;
64854;SDS011;51321;50.428;8.378;2022-07-10T04:11:21;28.63;;;10.30;;
64854;SDS011;51321;50.428;8.378;2022-07-10T04:13:43;31.48;;;8.82;;
64854;SDS011;51321;50.428;8.378;2022-07-10T04:16:05;23.75;;;8.45;;
64854;SDS011;51321;50.428;8.378;2022-07-10T04:18:30;26.02;;;8.57;;
64854;SDS011;51321;50.428;8.378;2022-07-10T04:20:52;31.50;;;11.10;;
64854;SDS011;51321;50.428;8.378;2022-07-10T04:23:13;34.00;;;10.93;;
64854;SDS011;51321;50.428;8.378;2022-07-10T04:25:37;41.25;;;13.15;;
64854;SDS011;51321;50.428;8.378;2022-07-10T04:27:58;43.28;;;15.20;;
64854;SDS011;51321;50.428;8.378;2022-07-10T04:30:20;39.85;;;13.65;;
64854;SDS011;51321;50.428;8.378;2022-07-10T04:32:42;52.38;;;16.20;;
64854;SDS011;51321;50.428;8.378;2022-07-10T04:35:04;60.42;;;18.88;;
64854;SDS011;51321;50.428;8.378;2022-07-10T04:37:27;49.53;;;17.13;;
64854;SDS011;51321;50.428;8.378;2022-07-10T04:39:49;40.38;;;14.30;;
64854;SDS011;51321;50.428;8.378;2022-07-10T04:42:12;28.17;;;9.38;;
64854;SDS011;51321;50.428;8.378;2022-07-10T04:44:34;34.38;;;11.43;;
64854;SDS011;51321;50.428;8.378;2022-07-10T04:46:56;33.00;;;9.88;;
64854;SDS011;51321;50.428;8.378;2022-07-10T04:49:18;19.08;;;7.38;;
64854;SDS011;51321;50.428;8.378;2022-07-10T04:51:40;21.95;;;6.88;;
64854;SDS011;51321;50.428;8.378;2022-07-10T04:54:02;21.90;;;6.82;;
64854;SDS011;51321;50.428;8.378;2022-07-10T04:56:24;13.77;;;4.60;;
64854;SDS011;51321;50.428;8.378;2022-07-10T04:58:47;10.63;;;3.80;;
64854;SDS011;51321;50.428;8.378;2022-07-10T05:01:09;12.63;;;4.60;;
64854;SDS011;51321;50.428;8.378;2022-07-10T05:03:30;14.70;;;4.68;;
64854;SDS011;51321;50.428;8.378;2022-07-10T05:05:52;12.48;;;3.97;;
64854;SDS011;51321;50.428;8.378;2022-07-10T05:08:14;10.13;;;3.30;;
64854;SDS011;51321;50.428;8.378;2022-07-10T05:10:36;7.55;;;2.20;;
64854;SDS011;51321;50.428;8.378;2022-07-10T05:12:57;10.15;;;2.92;;
64854;SDS011;51321;50.428;8.378;2022-07-10T05:15:21;7.78;;;2.55;;
64854;SDS011;51321;50.428;8.378;2022-07-10T05:17:42;11.77;;;3.75;;
64854;SDS011;51321;50.428;8.378;2022-07-10T05:20:05;9.00;;;2.20;;
64854;SDS011;51321;50.428;8.378;2022-07-10T05:22:27;4.60;;;1.40;;
64854;SDS011;51321;50.428;8.378;2022-07-10T05:24:50;4.65;;;1.00;;
64854;SDS011;51321;50.428;8.378;2022-07-10T05:27:12;8.73;;;2.13;;
64854;SDS011;51321;50.428;8.378;2022-07-10T05:29:34;8.27;;;2.03;;
64854;SDS011;51321;50.428;8.378;2022-07-10T05:31:57;4.70;;;1.55;;
64854;SDS011;51321;50.428;8.378;2022-07-10T05:34:19;8.75;;;3.88;;
64854;SDS011;51321;50.428;8.378;2022-07-10T05:36:41;4.85;;;1.92;;
64854;SDS011;51321;50.428;8.378;2022-07-10T05:39:02;4.82;;;2.08;;
64854;SDS011;51321;50.428;8.378;2022-07-10T05:41:24;9.38;;;1.80;;
64854;SDS011;51321;50.428;8.378;2022-07-10T05:43:46;12.95;;;6.10;;
64854;SDS011;51321;50.428;8.378;2022-07-10T05:46:08;7.10;;;2.97;;
64854;SDS011;51321;50.428;8.378;2022-07-10T05:48:31;7.78;;;2.30;;
64854;SDS011;51321;50.428;8.378;2022-07-10T05:50:53;5.35;;;1.30;;
64854;SDS011;51321;50.428;8.378;2022-07-10T05:53:15;4.53;;;0.80;;
64854;SDS011;51321;50.428;8.378;2022-07-10T05:55:39;4.70;;;0.82;;
64854;SDS011;51321;50.428;8.378;2022-07-10T05:58:01;6.18;;;1.33;;
64854;SDS011;51321;50.428;8.378;2022-07-10T06:00:22;4.95;;;0.70;;
64854;SDS011;51321;50.428;8.378;2022-07-10T06:02:45;2.92;;;1.25;;
64854;SDS011;51321;50.428;8.378;2022-07-10T06:05:08;4.13;;;0.65;;
64854;SDS011;51321;50.428;8.378;2022-07-10T06:07:30;4.65;;;0.80;;
64854;SDS011;51321;50.428;8.378;2022-07-10T06:09:52;1.52;;;0.60;;
64854;SDS011;51321;50.428;8.378;2022-07-10T06:12:14;6.88;;;2.67;;
64854;SDS011;51321;50.428;8.378;2022-07-10T06:14:36;5.60;;;0.85;;
64854;SDS011;51321;50.428;8.378;2022-07-10T06:16:58;2.40;;;0.82;;
64854;SDS011;51321;50.428;8.378;2022-07-10T06:19:20;4.72;;;1.30;;
64854;SDS011;51321;50.428;8.378;2022-07-10T06:21:43;7.93;;;1.00;;
64854;SDS011;51321;50.428;8.378;2022-07-10T06:24:05;2.15;;;0.50;;
64854;SDS011;51321;50.428;8.378;2022-07-10T06:26:27;3.17;;;0.77;;
64854;SDS011;51321;50.428;8.378;2022-07-10T06:28:48;2.22;;;0.60;;
64854;SDS011;51321;50.428;8.378;2022-07-10T06:31:10;3.63;;;0.73;;
64854;SDS011;51321;50.428;8.378;2022-07-10T06:33:33;7.10;;;1.55;;
64854;SDS011;51321;50.428;8.378;2022-07-10T06:35:55;3.05;;;0.90;;
64854;SDS011;51321;50.428;8.378;2022-07-10T06:38:18;2.92;;;1.20;;
64854;SDS011;51321;50.428;8.378;2022-07-10T06:40:40;2.58;;;0.52;;
64854;SDS011;51321;50.428;8.378;2022-07-10T06:43:03;5.38;;;1.20;;
64854;SDS011;51321;50.428;8.378;2022-07-10T06:45:25;3.05;;;0.98;;
64854;SDS011;51321;50.428;8.378;2022-07-10T06:47:47;3.75;;;0.88;;
64854;SDS011;51321;50.428;8.378;2022-07-10T06:50:19;2.87;;;0.60;;
64854;SDS011;51321;50.428;8.378;2022-07-10T06:52:41;3.88;;;0.93;;
64854;SDS011;51321;50.428;8.378;2022-07-10T06:55:05;7.53;;;0.98;;
64854;SDS011;51321;50.428;8.378;2022-07-10T06:57:27;4.82;;;1.10;;
64854;SDS011;51321;50.428;8.378;2022-07-10T06:59:49;5.57;;;1.77;;
64854;SDS011;51321;50.428;8.378;2022-07-10T07:02:11;7.70;;;1.73;;
64854;SDS011;51321;50.428;8.378;2022-07-10T07:04:33;4.88;;;1.17;;
64854;SDS011;51321;50.428;8.378;2022-07-10T07:06:55;4.05;;;1.30;;
64854;SDS011;51321;50.428;8.378;2022-07-10T07:09:16;3.35;;;0.95;;
64854;SDS011;51321;50.428;8.378;2022-07-10T07:11:39;5.68;;;1.05;;
64854;SDS011;51321;50.428;8.378;2022-07-10T07:14:01;3.72;;;1.10;;
64854;SDS011;51321;50.428;8.378;2022-07-10T07:16:23;3.38;;;0.90;;
64854;SDS011;51321;50.428;8.378;2022-07-10T07:18:57;5.82;;;1.33;;
64854;SDS011;51321;50.428;8.378;2022-07-10T07:21:19;5.00;;;1.55;;
64854;SDS011;51321;50.428;8.378;2022-07-10T07:23:59;4.57;;;1.23;;
64854;SDS011;51321;50.428;8.378;2022-07-10T07:26:21;3.40;;;0.70;;
64854;SDS011;51321;50.428;8.378;2022-07-10T07:28:44;5.68;;;1.50;;
64854;SDS011;51321;50.428;8.378;2022-07-10T07:31:05;5.43;;;1.98;;
64854;SDS011;51321;50.428;8.378;2022-07-10T07:33:27;4.47;;;0.90;;
64854;SDS011;51321;50.428;8.378;2022-07-10T07:35:49;5.30;;;1.20;;
64854;SDS011;51321;50.428;8.378;2022-07-10T07:38:11;4.35;;;1.10;;
64854;SDS011;51321;50.428;8.378;2022-07-10T07:40:33;3.65;;;0.70;;
64854;SDS011;51321;50.428;8.378;2022-07-10T07:42:57;4.97;;;1.02;;
64854;SDS011;51321;50.428;8.378;2022-07-10T07:45:21;6.78;;;1.10;;
64854;SDS011;51321;50.428;8.378;2022-07-10T07:47:44;6.40;;;1.67;;
64854;SDS011;51321;50.428;8.378;2022-07-10T07:50:06;4.03;;;0.95;;
64854;SDS011;51321;50.428;8.378;2022-07-10T07:54:51;3.40;;;0.80;;
64854;SDS011;51321;50.428;8.378;2022-07-10T07:57:13;5.20;;;1.20;;
64854;SDS011;51321;50.428;8.378;2022-07-10T07:59:35;6.72;;;1.20;;
64854;SDS011;51321;50.428;8.378;2022-07-10T08:01:58;4.68;;;1.33;;
64854;SDS011;51321;50.428;8.378;2022-07-10T08:04:20;4.00;;;1.63;;
64854;SDS011;51321;50.428;8.378;2022-07-10T08:06:41;5.00;;;1.00;;
64854;SDS011;51321;50.428;8.378;2022-07-10T08:09:03;5.28;;;0.90;;
64854;SDS011;51321;50.428;8.378;2022-07-10T08:11:26;7.40;;;3.30;;
64854;SDS011;51321;50.428;8.378;2022-07-10T08:13:47;3.88;;;1.10;;
64854;SDS011;51321;50.428;8.378;2022-07-10T08:16:09;9.65;;;1.58;;
64854;SDS011;51321;50.428;8.378;2022-07-10T08:18:32;5.13;;;1.70;;
64854;SDS011;51321;50.428;8.378;2022-07-10T08:20:54;4.40;;;0.90;;
64854;SDS011;51321;50.428;8.378;2022-07-10T08:23:16;5.55;;;1.63;;
64854;SDS011;51321;50.428;8.378;2022-07-10T08:25:38;6.47;;;1.10;;
64854;SDS011;51321;50.428;8.378;2022-07-10T08:28:00;7.32;;;0.82;;
64854;SDS011;51321;50.428;8.378;2022-07-10T08:30:22;3.63;;;0.65;;
64854;SDS011;51321;50.428;8.378;2022-07-10T08:32:44;3.50;;;1.00;;
64854;SDS011;51321;50.428;8.378;2022-07-10T08:35:08;3.63;;;0.60;;
64854;SDS011;51321;50.428;8.378;2022-07-10T08:37:34;3.35;;;0.55;;
64854;SDS011;51321;50.428;8.378;2022-07-10T08:39:59;7.53;;;1.08;;
64854;SDS011;51321;50.428;8.378;2022-07-10T08:42:20;3.80;;;0.98;;
64854;SDS011;51321;50.428;8.378;2022-07-10T08:44:43;3.38;;;1.45;;
64854;SDS011;51321;50.428;8.378;2022-07-10T08:47:05;6.78;;;1.70;;
64854;SDS011;51321;50.428;8.378;2022-07-10T08:49:28;2.60;;;0.95;;
64854;SDS011;51321;50.428;8.378;2022-07-10T08:51:53;4.25;;;0.90;;
64854;SDS011;51321;50.428;8.378;2022-07-10T08:54:19;3.53;;;0.82;;
64854;SDS011;51321;50.428;8.378;2022-07-10T08:56:42;4.10;;;0.60;;
64854;SDS011;51321;50.428;8.378;2022-07-10T09:01:26;3.60;;;0.95;;
64854;SDS011;51321;50.428;8.378;2022-07-10T09:03:48;7.30;;;0.80;;
64854;SDS011;51321;50.428;8.378;2022-07-10T09:08:33;6.47;;;1.17;;
64854;SDS011;51321;50.428;8.378;2022-07-10T09:11:12;2.95;;;1.15;;
64854;SDS011;51321;50.428;8.378;2022-07-10T09:13:35;3.17;;;0.73;;
64854;SDS011;51321;50.428;8.378;2022-07-10T09:16:19;3.85;;;1.05;;
64854;SDS011;51321;50.428;8.378;2022-07-10T09:18:43;3.42;;;0.60;;
64854;SDS011;51321;50.428;8.378;2022-07-10T09:21:06;3.05;;;1.15;;
64854;SDS011;51321;50.428;8.378;2022-07-10T09:23:33;3.50;;;0.90;;
64854;SDS011;51321;50.428;8.378;2022-07-10T09:25:55;5.70;;;1.13;;
64854;SDS011;51321;50.428;8.378;2022-07-10T09:28:18;6.50;;;1.35;;
64854;SDS011;51321;50.428;8.378;2022-07-10T09:30:41;3.15;;;1.10;;
64854;SDS011;51321;50.428;8.378;2022-07-10T09:35:35;5.93;;;1.50;;
64854;SDS011;51321;50.428;8.378;2022-07-10T09:38:22;5.00;;;1.20;;
64854;SDS011;51321;50.428;8.378;2022-07-10T09:40:46;3.55;;;0.90;;
64854;SDS011;51321;50.428;8.378;2022-07-10T09:43:08;4.90;;;0.80;;
64854;SDS011;51321;50.428;8.378;2022-07-10T09:45:30;4.45;;;1.25;;
64854;SDS011;51321;50.428;8.378;2022-07-10T09:47:55;2.78;;;0.90;;
64854;SDS011;51321;50.428;8.378;2022-07-10T09:50:22;4.97;;;0.93;;
64854;SDS011;51321;50.428;8.378;2022-07-10T09:52:45;4.72;;;1.13;;
64854;SDS011;51321;50.428;8.378;2022-07-10T09:55:07;4.18;;;0.90;;
64854;SDS011;51321;50.428;8.378;2022-07-10T09:57:31;2.38;;;0.80;;
64854;SDS011;51321;50.428;8.378;2022-07-10T09:59:53;6.40;;;1.55;;
64854;SDS011;51321;50.428;8.378;2022-07-10T10:02:17;7.10;;;1.60;;
64854;SDS011;51321;50.428;8.378;2022-07-10T10:04:40;4.72;;;1.17;;
64854;SDS011;51321;50.428;8.378;2022-07-10T10:07:03;3.72;;;0.93;;
64854;SDS011;51321;50.428;8.378;2022-07-10T10:09:32;5.78;;;1.77;;
64854;SDS011;51321;50.428;8.378;2022-07-10T10:11:59;4.65;;;0.85;;
64854;SDS011;51321;50.428;8.378;2022-07-10T10:14:27;2.92;;;1.02;;
64854;SDS011;51321;50.428;8.378;2022-07-10T10:16:49;3.50;;;1.20;;
64854;SDS011;51321;50.428;8.378;2022-07-10T10:19:13;5.72;;;0.95;;
64854;SDS011;51321;50.428;8.378;2022-07-10T10:21:54;4.88;;;1.05;;
64854;SDS011;51321;50.428;8.378;2022-07-10T10:24:17;4.13;;;0.60;;
64854;SDS011;51321;50.428;8.378;2022-07-10T10:26:39;3.95;;;0.85;;
64854;SDS011;51321;50.428;8.378;2022-07-10T10:29:02;4.78;;;1.00;;
64854;SDS011;51321;50.428;8.378;2022-07-10T10:31:28;3.60;;;0.80;;
64854;SDS011;51321;50.428;8.378;2022-07-10T10:33:54;4.40;;;0.70;;
64854;SDS011;51321;50.428;8.378;2022-07-10T10:39:08;4.22;;;0.85;;
64854;SDS011;51321;50.428;8.378;2022-07-10T10:41:36;3.85;;;1.00;;
64854;SDS011;51321;50.428;8.378;2022-07-10T10:46:53;4.82;;;0.82;;
64854;SDS011;51321;50.428;8.378;2022-07-10T10:49:21;4.57;;;0.70;;
64854;SDS011;51321;50.428;8.378;2022-07-10T10:54:23;4.82;;;0.80;;
64854;SDS011;51321;50.428;8.378;2022-07-10T10:56:44;5.07;;;0.90;;
64854;SDS011;51321;50.428;8.378;2022-07-10T10:59:06;2.38;;;0.40;;
64854;SDS011;51321;50.428;8.378;2022-07-10T11:01:29;2.95;;;0.82;;
64854;SDS011;51321;50.428;8.378;2022-07-10T11:06:40;3.58;;;0.70;;
64854;SDS011;51321;50.428;8.378;2022-07-10T11:09:05;2.75;;;0.45;;
64854;SDS011;51321;50.428;8.378;2022-07-10T11:11:42;5.97;;;0.85;;
64854;SDS011;51321;50.428;8.378;2022-07-10T11:14:05;4.18;;;0.60;;
64854;SDS011;51321;50.428;8.378;2022-07-10T11:16:28;6.97;;;1.30;;
64854;SDS011;51321;50.428;8.378;2022-07-10T11:18:53;2.85;;;1.02;;
64854;SDS011;51321;50.428;8.378;2022-07-10T11:21:23;2.28;;;0.77;;
64854;SDS011;51321;50.428;8.378;2022-07-10T11:23:51;2.53;;;0.43;;
64854;SDS011;51321;50.428;8.378;2022-07-10T11:26:21;6.97;;;1.50;;
64854;SDS011;51321;50.428;8.378;2022-07-10T11:28:47;3.10;;;0.60;;
64854;SDS011;51321;50.428;8.378;2022-07-10T11:31:12;3.78;;;0.63;;
64854;SDS011;51321;50.428;8.378;2022-07-10T11:33:38;2.92;;;0.75;;
64854;SDS011;51321;50.428;8.378;2022-07-10T11:36:03;4.07;;;0.60;;
64854;SDS011;51321;50.428;8.378;2022-07-10T11:38:34;2.70;;;0.47;;
64854;SDS011;51321;50.428;8.378;2022-07-10T11:40:56;4.43;;;0.68;;
64854;SDS011;51321;50.428;8.378;2022-07-10T11:43:18;2.25;;;0.90;;
64854;SDS011;51321;50.428;8.378;2022-07-10T11:45:43;1.95;;;0.70;;
64854;SDS011;51321;50.428;8.378;2022-07-10T11:48:05;4.68;;;0.90;;
64854;SDS011;51321;50.428;8.378;2022-07-10T11:50:33;3.40;;;0.93;;
64854;SDS011;51321;50.428;8.378;2022-07-10T11:52:56;2.38;;;0.70;;
64854;SDS011;51321;50.428;8.378;2022-07-10T11:55:22;3.40;;;0.85;;
64854;SDS011;51321;50.428;8.378;2022-07-10T11:57:44;2.90;;;0.60;;
64854;SDS011;51321;50.428;8.378;2022-07-10T12:00:17;3.83;;;0.60;;
64854;SDS011;51321;50.428;8.378;2022-07-10T12:02:43;4.47;;;1.27;;
64854;SDS011;51321;50.428;8.378;2022-07-10T12:05:05;4.47;;;1.00;;
64854;SDS011;51321;50.428;8.378;2022-07-10T12:07:28;3.78;;;1.50;;
64854;SDS011;51321;50.428;8.378;2022-07-10T12:09:52;4.22;;;0.80;;
64854;SDS011;51321;50.428;8.378;2022-07-10T12:12:15;2.13;;;0.98;;
64854;SDS011;51321;50.428;8.378;2022-07-10T12:14:37;2.72;;;0.70;;
64854;SDS011;51321;50.428;8.378;2022-07-10T12:17:00;2.40;;;0.70;;
64854;SDS011;51321;50.428;8.378;2022-07-10T12:21:45;4.25;;;0.60;;
64854;SDS011;51321;50.428;8.378;2022-07-10T12:24:08;3.22;;;0.70;;
64854;SDS011;51321;50.428;8.378;2022-07-10T12:26:33;3.78;;;1.00;;
64854;SDS011;51321;50.428;8.378;2022-07-10T12:28:57;3.55;;;0.50;;
64854;SDS011;51321;50.428;8.378;2022-07-10T12:31:22;3.42;;;1.23;;
64854;SDS011;51321;50.428;8.378;2022-07-10T12:33:49;5.00;;;0.90;;
64854;SDS011;51321;50.428;8.378;2022-07-10T12:36:12;1.92;;;0.60;;
64854;SDS011;51321;50.428;8.378;2022-07-10T12:38:34;2.33;;;0.60;;
64854;SDS011;51321;50.428;8.378;2022-07-10T12:41:06;2.30;;;0.70;;
64854;SDS011;51321;50.428;8.378;2022-07-10T12:43:28;2.33;;;0.68;;
64854;SDS011;51321;50.428;8.378;2022-07-10T12:48:31;2.88;;;0.70;;
64854;SDS011;51321;50.428;8.378;2022-07-10T12:50:53;1.63;;;0.38;;
64854;SDS011;51321;50.428;8.378;2022-07-10T12:53:15;1.27;;;0.40;;
64854;SDS011;51321;50.428;8.378;2022-07-10T12:55:37;4.13;;;0.55;;
64854;SDS011;51321;50.428;8.378;2022-07-10T12:58:04;1.27;;;0.38;;
64854;SDS011;51321;50.428;8.378;2022-07-10T13:00:29;2.30;;;0.60;;
64854;SDS011;51321;50.428;8.378;2022-07-10T13:02:58;1.83;;;0.50;;
64854;SDS011;51321;50.428;8.378;2022-07-10T13:05:25;1.80;;;0.40;;
64854;SDS011;51321;50.428;8.378;2022-07-10T13:07:51;1.30;;;0.45;;
64854;SDS011;51321;50.428;8.378;2022-07-10T13:10:13;3.70;;;0.55;;
64854;SDS011;51321;50.428;8.378;2022-07-10T13:12:34;2.50;;;0.60;;
64854;SDS011;51321;50.428;8.378;2022-07-10T13:17:18;5.45;;;0.75;;
64854;SDS011;51321;50.428;8.378;2022-07-10T13:19:41;1.85;;;0.43;;
64854;SDS011;51321;50.428;8.378;2022-07-10T13:22:03;2.58;;;0.20;;
64854;SDS011;51321;50.428;8.378;2022-07-10T13:26:47;1.20;;;0.40;;
64854;SDS011;51321;50.428;8.378;2022-07-10T13:31:31;0.82;;;0.50;;
64854;SDS011;51321;50.428;8.378;2022-07-10T13:33:53;1.65;;;0.52;;
64854;SDS011;51321;50.428;8.378;2022-07-10T13:36:16;0.70;;;0.40;;
64854;SDS011;51321;50.428;8.378;2022-07-10T13:38:38;1.17;;;0.17;;
64854;SDS011;51321;50.428;8.378;2022-07-10T13:41:02;1.15;;;0.28;;
64854;SDS011;51321;50.428;8.378;2022-07-10T13:43:24;3.55;;;1.10;;
64854;SDS011;51321;50.428;8.378;2022-07-10T13:45:49;1.10;;;0.77;;
64854;SDS011;51321;50.428;8.378;2022-07-10T13:48:10;3.17;;;0.80;;
64854;SDS011;51321;50.428;8.378;2022-07-10T13:50:33;1.73;;;0.68;;
64854;SDS011;51321;50.428;8.378;2022-07-10T13:52:57;2.20;;;0.50;;
64854;SDS011;51321;50.428;8.378;2022-07-10T13:55:18;0.60;;;0.30;;
64854;SDS011;51321;50.428;8.378;2022-07-10T13:57:40;1.08;;;0.30;;
64854;SDS011;51321;50.428;8.378;2022-07-10T14:00:02;2.20;;;0.43;;
64854;SDS011;51321;50.428;8.378;2022-07-10T14:02:32;8.07;;;0.80;;
64854;SDS011;51321;50.428;8.378;2022-07-10T14:04:53;3.03;;;0.43;;
64854;SDS011;51321;50.428;8.378;2022-07-10T14:07:15;0.25;;;0.20;;
64854;SDS011;51321;50.428;8.378;2022-07-10T14:09:38;0.65;;;0.30;;
64854;SDS011;51321;50.428;8.378;2022-07-10T14:12:00;1.20;;;0.20;;
64854;SDS011;51321;50.428;8.378;2022-07-10T14:14:22;0.50;;;0.22;;
64854;SDS011;51321;50.428;8.378;2022-07-10T14:16:44;0.70;;;0.20;;
64854;SDS011;51321;50.428;8.378;2022-07-10T14:19:05;0.50;;;0.20;;
64854;SDS011;51321;50.428;8.378;2022-07-10T14:21:27;1.10;;;0.30;;
64854;SDS011;51321;50.428;8.378;2022-07-10T14:23:49;2.05;;;0.20;;
64854;SDS011;51321;50.428;8.378;2022-07-10T14:26:12;1.45;;;0.35;;
64854;SDS011;51321;50.428;8.378;2022-07-10T14:28:34;1.85;;;0.45;;
64854;SDS011;51321;50.428;8.378;2022-07-10T14:30:56;0.65;;;0.28;;
64854;SDS011;51321;50.428;8.378;2022-07-10T14:33:20;1.45;;;0.20;;
64854;SDS011;51321;50.428;8.378;2022-07-10T14:35:42;0.38;;;0.20;;
64854;SDS011;51321;50.428;8.378;2022-07-10T14:38:04;1.02;;;0.17;;
64854;SDS011;51321;50.428;8.378;2022-07-10T14:40:25;1.00;;;0.28;;
64854;SDS011;51321;50.428;8.378;2022-07-10T14:42:48;0.65;;;0.20;;
64854;SDS011;51321;50.428;8.378;2022-07-10T14:45:10;0.93;;;0.10;;
64854;SDS011;51321;50.428;8.378;2022-07-10T14:47:32;1.48;;;0.20;;
64854;SDS011;51321;50.428;8.378;2022-07-10T14:49:54;0.30;;;0.10;;
64854;SDS011;51321;50.428;8.378;2022-07-10T14:52:15;1.58;;;0.20;;